Loris, SC (29569)

11:45 EST le 04 Mars 2015 (GMT -0500)
HWY 9 BUS. WEST. | Change Station
CLOSE
Current Station
Stations météorologiques personnelles
Location: Loris, SC
Altitude: 99 ft
Stations météo à proximité
Avis météorologiques actifs: Flood Warning

Alt. 99 ft 34.07 °N, 78.91 °W | Updated 14 seconds ago

Couvert
Couvert
76.7 ° F
Paraît 78 ° F
N
2.0
Vent Variable Vent de SO
Gusts 4.0 mph

Aujourd'hui
Haut(e) -- | Bas -- ° F
--% Risque de précip.
Hier
Haut(e) -- | Bas -- ° F
Precip. -- pouce
6:40 AM 6:14 PM
Lune gibbeuse croissante, 99% visible
Pression 30.06 pouce
Visibilité 7.0 Miles terrestres
Nuages Nuageux 2400 ft
Nuageux 4000 ft
Couvert 5500 ft
indice de chaleur 78 ° F
Point de rosée 69 ° F
Humidité 76%
Précipitations 0.00 pouce
Profondeur de la couche neigeuse Non disponible.
UV 2 sur 12
Pollen 9.70 sur 12
Qualité de l'air Non disponible.
Flu Activity Non disponible.
METAR KHYW 041635Z AUTO 22012G19KT 7SM BKN024 BKN040 OVC055 25/19 A3006 RMK AO2

More Conditions Fewer Conditions

Pression 30.06 pouce
Visibilité 7.0 Miles terrestres
Nuages Nuageux 2400 ft
Nuageux 4000 ft
Couvert 5500 ft
indice de chaleur 78 ° F
Point de rosée 69 ° F
Humidité 76%
Précipitations 0.00 pouce
Profondeur de la couche neigeuse Non disponible.
UV 2 sur 12
Pollen 9.70 sur 12
Qualité de l'air Non disponible.
Flu Activity Non disponible.
METAR KHYW 041635Z AUTO 22012G19KT 7SM BKN024 BKN040 OVC055 25/19 A3006 RMK AO2

More Conditions Fewer Conditions

10-Day Weather Forecast

Almanac

Astronomie

Mar. 04, 2015 Lever Coucher
Temps réel
Crépuscule civil
Crépuscule nautique
Crépuscule astronomique
Lune
Durée de lumière visible
Longueur du jour
Tomorrow will be .
, % of the Moon is Illuminated

Extrêmes aujourd'hui

State Highs State Lows

Community

WunderPhotos

Upload Photos

1,802,503 Photos téléchargées !

WunderBlogs® & News

Nearby

Qualité de l'air

  Qualité de l'air Indice de la qualité de l'air Polluant
Not available.

Épaisseur de neige

Station Depth Altitude

Activité sismique

Ville Distance Mag. Time & Date
Minimum magnitude displayed is 2.5.

Températures des eaux côtières

Lieu Température

Stations météo à proximité

Flood Warning
Statement as of 10:12 EST le 04 Mars 2015

The Flood Warning continues for
the little Pee Dee at Galivants Ferry.
* Until further notice.
* At 10:00 am Wednesday the stage was 9.9 feet.
* Flood stage is 9.0 feet.
* Minor flooding is occurring and minor flooding is forecast.
* Forecast... the river will continue rising to near 9.9 feet by this afternoon.
Additional rises may be possible thereafter.
* Impact... at 9.0 feet... flood waters will begin to affect residential yards in
the Fork retch community upstream of Galivants Ferry near the town of Nichols.
Swampland flooding becomes noticeable and natural boat landings will be
flooded.


Lat... Lon 3423 7921 3419 7910 3405 7920 3398 7928
          3400 7938 3409 7930